createdAt,value
2018-01-24T00:01:01.011Z,11.41
2018-01-24T00:02:00.977Z,11.41
2018-01-24T00:03:00.856Z,11.51
2018-01-24T00:04:00.788Z,11.36
2018-01-24T00:05:00.719Z,11.35
2018-01-24T00:06:00.705Z,11.51
2018-01-24T00:07:00.556Z,11.46
2018-01-24T00:08:00.486Z,11.48
2018-01-24T00:09:00.383Z,11.41
2018-01-24T00:10:00.310Z,11.48
2018-01-24T00:11:00.236Z,11.56
2018-01-24T00:12:00.182Z,11.53
2018-01-24T00:13:00.078Z,11.49
2018-01-24T00:14:00.019Z,11.46
2018-01-24T00:14:59.980Z,11.46
2018-01-24T00:15:59.848Z,11.49
2018-01-24T00:16:59.791Z,11.48
2018-01-24T00:17:59.686Z,11.49
2018-01-24T00:18:59.595Z,11.39
2018-01-24T00:19:59.533Z,11.56
2018-01-24T00:20:59.889Z,11.54
2018-01-24T00:21:59.385Z,11.48
2018-01-24T00:22:59.289Z,11.59
2018-01-24T00:23:59.252Z,11.49
2018-01-24T00:24:59.137Z,11.49
2018-01-24T00:25:59.062Z,11.56
2018-01-24T00:26:58.994Z,11.49
2018-01-24T00:27:58.902Z,11.45
2018-01-24T00:28:58.814Z,11.51
2018-01-24T00:29:58.756Z,11.54
2018-01-24T00:30:58.661Z,11.56
2018-01-24T00:31:58.596Z,11.49
2018-01-24T00:32:58.599Z,11.54
2018-01-24T00:33:58.445Z,11.57
2018-01-24T00:34:58.345Z,11.59
2018-01-24T00:35:58.323Z,11.51
2018-01-24T00:36:58.185Z,11.57
2018-01-24T00:37:58.157Z,11.49
2018-01-24T00:38:58.034Z,11.59
2018-01-24T00:39:57.975Z,11.57
2018-01-24T00:40:57.869Z,11.51
2018-01-24T00:41:57.816Z,11.54
2018-01-24T00:42:57.751Z,11.64
2018-01-24T00:43:57.672Z,11.63
2018-01-24T00:44:57.556Z,11.66
2018-01-24T00:45:57.504Z,11.63
2018-01-24T00:46:57.411Z,11.64
2018-01-24T00:47:57.330Z,11.66
2018-01-24T00:48:57.266Z,11.63
2018-01-24T00:49:57.185Z,11.64
2018-01-24T00:50:57.107Z,11.64
2018-01-24T00:51:57.017Z,11.64
2018-01-24T00:52:56.927Z,11.70
2018-01-24T00:53:56.862Z,11.67
2018-01-24T00:54:56.835Z,11.69
2018-01-24T00:55:56.809Z,11.66
2018-01-24T00:56:56.617Z,11.57
2018-01-24T00:57:56.545Z,11.72
2018-01-24T00:58:56.473Z,11.63
2018-01-24T00:59:56.388Z,11.74
2018-01-24T01:00:56.330Z,11.74
2018-01-24T01:01:56.261Z,11.74
2018-01-24T01:02:56.149Z,11.72
2018-01-24T01:03:56.079Z,11.77
2018-01-24T01:04:56.060Z,11.74
2018-01-24T01:05:55.927Z,11.64
2018-01-24T01:06:55.830Z,11.63
2018-01-24T01:07:55.792Z,11.74
2018-01-24T01:08:55.674Z,11.69
2018-01-24T01:09:55.605Z,11.79
2018-01-24T01:10:55.534Z,11.75
2018-01-24T01:11:55.447Z,11.70
2018-01-24T01:12:55.359Z,11.70
2018-01-24T01:13:55.351Z,11.82
2018-01-24T01:14:55.203Z,11.79
2018-01-24T01:15:55.165Z,11.78
2018-01-24T01:16:55.059Z,11.78
2018-01-24T01:17:54.985Z,11.78
2018-01-24T01:18:54.914Z,11.78
2018-01-24T01:19:54.824Z,11.87
2018-01-24T01:20:54.767Z,11.84
2018-01-24T01:21:54.677Z,11.87
2018-01-24T01:22:54.579Z,11.78
2018-01-24T01:23:54.510Z,11.87
2018-01-24T01:24:54.429Z,11.93
2018-01-24T01:25:54.379Z,11.88
2018-01-24T01:26:54.263Z,11.97
2018-01-24T01:27:54.227Z,11.84
2018-01-24T01:28:54.110Z,11.94
2018-01-24T01:29:54.053Z,11.93
2018-01-24T01:30:53.973Z,11.90
2018-01-24T01:31:53.887Z,11.98
2018-01-24T01:32:53.799Z,11.97
2018-01-24T01:33:53.729Z,12.01
2018-01-24T01:34:54.311Z,11.90
2018-01-24T01:35:53.597Z,11.93
2018-01-24T01:36:53.489Z,12.05
2018-01-24T01:37:53.414Z,11.87
2018-01-24T01:38:53.331Z,11.96
2018-01-24T01:39:53.269Z,11.97
2018-01-24T01:40:53.166Z,12.00
2018-01-24T01:41:53.119Z,12.05
2018-01-24T01:42:53.024Z,12.03
2018-01-24T01:43:52.949Z,12.08
2018-01-24T01:44:52.854Z,12.00
2018-01-24T01:45:52.799Z,12.00
2018-01-24T01:46:52.709Z,12.05
2018-01-24T01:47:52.654Z,12.01
2018-01-24T01:48:52.546Z,12.01
2018-01-24T01:49:52.472Z,12.07
2018-01-24T01:50:52.385Z,12.12
2018-01-24T01:51:52.312Z,12.05
2018-01-24T01:52:52.332Z,12.03
2018-01-24T01:53:52.167Z,12.08
2018-01-24T01:54:52.081Z,12.13
2018-01-24T01:55:52.010Z,12.13
2018-01-24T01:56:51.914Z,12.19
2018-01-24T01:57:51.859Z,12.13
2018-01-24T01:58:51.785Z,12.00
2018-01-24T01:59:51.713Z,12.16
2018-01-24T02:00:51.674Z,12.07
2018-01-24T02:01:51.639Z,12.13
2018-01-24T02:02:51.471Z,11.98
2018-01-24T02:03:51.377Z,12.04
2018-01-24T02:04:51.297Z,12.18
2018-01-24T02:05:51.227Z,12.13
2018-01-24T02:06:51.144Z,12.13
2018-01-24T02:07:51.067Z,12.18
2018-01-24T02:08:50.996Z,12.07
2018-01-24T02:09:50.909Z,12.08
2018-01-24T02:10:50.846Z,12.13
2018-01-24T02:11:50.765Z,12.18
2018-01-24T02:12:50.691Z,12.16
2018-01-24T02:13:50.595Z,12.13
2018-01-24T02:14:50.504Z,12.01
2018-01-24T02:15:50.447Z,12.15
2018-01-24T02:16:50.477Z,12.18
2018-01-24T02:17:50.285Z,12.03
2018-01-24T02:18:50.191Z,12.01
2018-01-24T02:19:50.153Z,12.05
2018-01-24T02:20:50.032Z,12.01
2018-01-24T02:21:49.968Z,12.05
2018-01-24T02:22:49.906Z,12.16
2018-01-24T02:23:49.816Z,12.04
2018-01-24T02:24:49.746Z,12.15
2018-01-24T02:25:49.667Z,12.03
2018-01-24T02:26:49.569Z,12.12
2018-01-24T02:27:49.500Z,12.00
2018-01-24T02:28:49.409Z,12.04
2018-01-24T02:29:49.377Z,12.05
2018-01-24T02:30:49.251Z,11.97
2018-01-24T02:31:49.183Z,11.93
2018-01-24T02:32:49.100Z,11.79
2018-01-24T02:33:49.037Z,11.79
2018-01-24T02:34:48.968Z,11.75
2018-01-24T02:35:48.893Z,11.77
2018-01-24T02:36:48.783Z,11.77
2018-01-24T02:37:48.724Z,11.74
2018-01-24T02:38:48.638Z,11.67
2018-01-24T02:39:48.568Z,11.66
2018-01-24T02:40:48.489Z,11.69
2018-01-24T02:41:48.405Z,11.67
2018-01-24T02:42:48.322Z,11.62
2018-01-24T02:43:48.252Z,11.64
2018-01-24T02:44:48.180Z,11.57
2018-01-24T02:45:48.114Z,11.60
2018-01-24T02:46:48.005Z,11.59
2018-01-24T02:47:47.939Z,11.64
2018-01-24T02:48:47.843Z,11.59
2018-01-24T02:49:47.790Z,11.54
2018-01-24T02:50:47.713Z,11.53
2018-01-24T02:51:48.648Z,11.59
2018-01-24T02:52:47.550Z,11.59
2018-01-24T02:53:47.468Z,11.62
2018-01-24T02:54:47.377Z,11.66
2018-01-24T02:55:47.317Z,11.60
2018-01-24T02:56:47.248Z,11.60
2018-01-24T02:57:47.167Z,11.69
2018-01-24T02:58:47.084Z,11.70
2018-01-24T02:59:46.994Z,11.66
2018-01-24T03:00:46.958Z,11.64
2018-01-24T03:01:46.857Z,11.63
2018-01-24T03:02:46.766Z,11.74
2018-01-24T03:03:46.675Z,11.70
2018-01-24T03:04:46.591Z,11.75
2018-01-24T03:05:46.521Z,11.82
2018-01-24T03:06:46.437Z,11.79
2018-01-24T03:07:46.525Z,11.81
2018-01-24T03:08:46.277Z,11.78
2018-01-24T03:09:46.211Z,11.93
2018-01-24T03:10:46.162Z,11.90
2018-01-24T03:11:46.062Z,12.01
2018-01-24T03:12:45.993Z,12.03
2018-01-24T03:13:45.912Z,12.05
2018-01-24T03:14:45.808Z,12.03
2018-01-24T03:15:45.736Z,11.98
2018-01-24T03:16:45.706Z,12.04
2018-01-24T03:17:45.585Z,12.03
2018-01-24T03:18:45.516Z,12.04
2018-01-24T03:19:45.458Z,12.04
2018-01-24T03:20:45.338Z,11.96
2018-01-24T03:21:45.279Z,11.85
2018-01-24T03:22:45.181Z,11.79
2018-01-24T03:23:45.112Z,11.67
2018-01-24T03:24:45.022Z,11.67
2018-01-24T03:25:44.974Z,11.70
2018-01-24T03:26:44.874Z,11.64
2018-01-24T03:27:44.819Z,11.64
2018-01-24T03:28:44.707Z,11.63
2018-01-24T03:29:44.647Z,11.59
2018-01-24T03:30:44.614Z,11.60
2018-01-24T03:31:44.497Z,11.62
2018-01-24T03:32:44.395Z,11.60
2018-01-24T03:33:44.349Z,11.54
2018-01-24T03:34:44.238Z,11.54
2018-01-24T03:35:44.193Z,11.57
2018-01-24T03:36:44.091Z,11.49
2018-01-24T03:37:44.029Z,11.48
2018-01-24T03:38:43.942Z,11.46
2018-01-24T03:39:43.962Z,11.49
2018-01-24T03:40:43.794Z,11.54
2018-01-24T03:41:43.709Z,11.59
2018-01-24T03:42:43.620Z,11.51
2018-01-24T03:43:43.566Z,11.49
2018-01-24T03:44:43.460Z,11.57
2018-01-24T03:45:43.418Z,11.59
2018-01-24T03:46:43.319Z,11.57
2018-01-24T03:47:43.242Z,11.54
2018-01-24T03:48:43.160Z,11.62
2018-01-24T03:49:43.085Z,11.63
2018-01-24T03:50:42.993Z,11.66
2018-01-24T03:51:42.945Z,11.54
2018-01-24T03:52:42.841Z,11.69
2018-01-24T03:53:42.763Z,11.59
2018-01-24T03:54:42.689Z,11.60
2018-01-24T03:55:42.607Z,11.67
2018-01-24T03:56:42.552Z,11.64
2018-01-24T03:57:43.146Z,11.64
2018-01-24T03:58:42.372Z,11.63
2018-01-24T03:59:42.295Z,11.60
2018-01-24T04:00:42.208Z,11.64
2018-01-24T04:01:42.162Z,11.69
2018-01-24T04:02:42.060Z,11.64
2018-01-24T04:03:41.982Z,11.72
2018-01-24T04:04:41.894Z,11.70
2018-01-24T04:05:41.829Z,11.75
2018-01-24T04:06:41.759Z,11.67
2018-01-24T04:07:41.667Z,11.78
2018-01-24T04:08:41.590Z,11.75
2018-01-24T04:09:41.513Z,11.66
2018-01-24T04:10:41.433Z,11.77
2018-01-24T04:11:41.360Z,11.69
2018-01-24T04:12:41.288Z,11.69
2018-01-24T04:13:41.193Z,11.74
2018-01-24T04:14:41.104Z,11.70
2018-01-24T04:15:41.044Z,11.77
2018-01-24T04:16:40.955Z,11.78
2018-01-24T04:17:40.902Z,11.77
2018-01-24T04:18:40.789Z,11.75
2018-01-24T04:19:40.724Z,11.74
2018-01-24T04:20:40.636Z,11.85
2018-01-24T04:21:40.572Z,11.85
2018-01-24T04:22:40.480Z,11.79
2018-01-24T04:23:40.430Z,11.78
2018-01-24T04:24:40.332Z,11.77
2018-01-24T04:25:40.258Z,11.85
2018-01-24T04:26:40.174Z,11.81
2018-01-24T04:27:40.114Z,11.78
2018-01-24T04:28:40.036Z,11.79
2018-01-24T04:29:39.993Z,11.78
2018-01-24T04:30:39.861Z,11.82
2018-01-24T04:31:39.785Z,11.79
2018-01-24T04:32:39.694Z,11.79
2018-01-24T04:33:39.689Z,11.81
2018-01-24T04:34:39.547Z,11.82
2018-01-24T04:35:39.486Z,11.82
2018-01-24T04:36:39.417Z,11.78
2018-01-24T04:37:39.340Z,11.79
2018-01-24T04:38:39.273Z,11.78
2018-01-24T04:39:39.155Z,11.78
2018-01-24T04:40:39.070Z,11.84
2018-01-24T04:41:39.015Z,11.78
2018-01-24T04:42:38.914Z,11.84
2018-01-24T04:43:38.862Z,11.79
2018-01-24T04:44:38.773Z,11.88
2018-01-24T04:45:38.708Z,11.88
2018-01-24T04:46:38.611Z,11.82
2018-01-24T04:47:38.538Z,11.79
2018-01-24T04:48:38.445Z,11.81
2018-01-24T04:49:38.394Z,11.84
2018-01-24T04:50:38.287Z,11.87
2018-01-24T04:51:38.235Z,11.79
2018-01-24T04:52:38.142Z,11.82
2018-01-24T04:53:38.068Z,11.84
2018-01-24T04:54:38.078Z,11.81
2018-01-24T04:55:37.926Z,11.79
2018-01-24T04:56:37.817Z,11.81
2018-01-24T04:57:37.753Z,11.90
2018-01-24T04:58:37.669Z,11.82
2018-01-24T04:59:37.600Z,11.87
2018-01-24T05:00:37.526Z,11.90
2018-01-24T05:01:37.439Z,11.87
2018-01-24T05:02:37.358Z,11.85
2018-01-24T05:03:37.362Z,11.79
2018-01-24T05:04:37.191Z,11.79
2018-01-24T05:05:37.139Z,11.84
2018-01-24T05:06:37.034Z,11.87
2018-01-24T05:07:36.979Z,11.90
2018-01-24T05:08:36.928Z,11.96
2018-01-24T05:09:36.812Z,11.96
2018-01-24T05:10:36.770Z,11.93
2018-01-24T05:11:36.644Z,11.96
2018-01-24T05:12:36.565Z,11.93
2018-01-24T05:13:36.507Z,11.90
2018-01-24T05:14:36.409Z,12.05
2018-01-24T05:15:36.346Z,11.98
2018-01-24T05:16:36.278Z,12.03
2018-01-24T05:17:36.217Z,12.07
2018-01-24T05:18:36.097Z,12.05
2018-01-24T05:19:36.031Z,12.04
2018-01-24T05:20:35.939Z,12.04
2018-01-24T05:21:35.893Z,12.05
2018-01-24T05:22:35.794Z,11.98
2018-01-24T05:23:35.714Z,12.04
2018-01-24T05:24:35.639Z,12.12
2018-01-24T05:25:35.653Z,12.05
2018-01-24T05:26:35.580Z,12.05
2018-01-24T05:27:35.458Z,12.08
2018-01-24T05:28:35.322Z,12.08
2018-01-24T05:29:35.273Z,12.04
2018-01-24T05:30:35.176Z,12.07
2018-01-24T05:31:35.115Z,12.04
2018-01-24T05:32:35.020Z,12.07
2018-01-24T05:33:34.991Z,12.00
2018-01-24T05:34:34.853Z,12.05
2018-01-24T05:35:35.003Z,12.05
2018-01-24T05:36:34.688Z,12.07
2018-01-24T05:37:34.741Z,12.08
2018-01-24T05:38:34.539Z,12.03
2018-01-24T05:39:34.517Z,12.05
2018-01-24T05:40:34.387Z,12.13
2018-01-24T05:41:34.422Z,12.12
2018-01-24T05:42:34.236Z,12.13
2018-01-24T05:43:34.172Z,12.15
2018-01-24T05:44:34.069Z,12.08
2018-01-24T05:45:33.990Z,12.11
2018-01-24T05:46:33.905Z,12.13
2018-01-24T05:47:33.849Z,12.19
2018-01-24T05:48:33.786Z,12.16
2018-01-24T05:49:33.759Z,12.16
2018-01-24T05:50:33.594Z,12.13
2018-01-24T05:51:33.606Z,12.12
2018-01-24T05:52:33.439Z,12.15
2018-01-24T05:53:33.537Z,12.15
2018-01-24T05:54:33.276Z,12.08
2018-01-24T05:55:33.288Z,12.15
2018-01-24T05:56:33.131Z,12.15
2018-01-24T05:57:33.102Z,12.15
2018-01-24T05:58:32.985Z,12.16
2018-01-24T05:59:48.235Z,12.22
2018-01-24T06:00:32.858Z,12.19
2018-01-24T06:01:32.758Z,12.07
2018-01-24T06:02:32.659Z,12.07
2018-01-24T06:03:32.622Z,12.12
2018-01-24T06:04:32.535Z,12.21
2018-01-24T06:05:32.436Z,12.15
2018-01-24T06:06:32.344Z,12.12
2018-01-24T06:07:32.269Z,12.22
2018-01-24T06:08:32.176Z,12.12
2018-01-24T06:09:32.185Z,12.12
2018-01-24T06:10:32.083Z,12.13
2018-01-24T06:11:31.973Z,12.05
2018-01-24T06:12:31.895Z,12.13
2018-01-24T06:13:31.811Z,12.07
2018-01-24T06:14:31.758Z,12.16
2018-01-24T06:15:31.645Z,12.05
2018-01-24T06:16:31.556Z,12.08
2018-01-24T06:17:31.490Z,12.18
2018-01-24T06:18:31.412Z,12.19
2018-01-24T06:19:31.357Z,12.11
2018-01-24T06:20:31.241Z,12.19
2018-01-24T06:21:31.185Z,12.22
2018-01-24T06:22:31.086Z,12.15
2018-01-24T06:23:31.039Z,12.08
2018-01-24T06:24:30.943Z,12.19
2018-01-24T06:25:30.864Z,12.04
2018-01-24T06:26:30.780Z,12.11
2018-01-24T06:27:30.708Z,12.16
2018-01-24T06:28:30.624Z,12.12
2018-01-24T06:29:30.573Z,12.00
2018-01-24T06:30:30.469Z,12.16
2018-01-24T06:31:30.398Z,12.11
2018-01-24T06:32:30.318Z,12.05
2018-01-24T06:33:30.243Z,12.00
2018-01-24T06:34:30.167Z,12.07
2018-01-24T06:35:30.139Z,12.04
2018-01-24T06:36:30.001Z,12.07
2018-01-24T06:37:29.948Z,12.11
2018-01-24T06:38:29.840Z,12.05
2018-01-24T06:39:29.770Z,11.97
2018-01-24T06:40:29.693Z,12.03
2018-01-24T06:41:29.720Z,12.04
2018-01-24T06:42:29.553Z,11.98
2018-01-24T06:43:29.462Z,11.96
2018-01-24T06:44:29.370Z,12.04
2018-01-24T06:45:29.331Z,12.00
2018-01-24T06:46:29.209Z,12.05
2018-01-24T06:47:29.143Z,12.08
2018-01-24T06:48:29.064Z,12.08
2018-01-24T06:49:28.981Z,12.07
2018-01-24T06:50:29.029Z,12.01
2018-01-24T06:51:28.839Z,12.00
2018-01-24T06:52:28.751Z,12.01
2018-01-24T06:53:28.671Z,12.07
2018-01-24T06:54:28.633Z,12.04
2018-01-24T06:55:28.525Z,12.04
2018-01-24T06:56:28.452Z,12.00
2018-01-24T06:57:28.370Z,12.00
2018-01-24T06:58:28.307Z,12.01
2018-01-24T06:59:28.199Z,12.03
2018-01-24T07:00:28.133Z,11.97
2018-01-24T07:01:28.079Z,11.98
2018-01-24T07:02:27.961Z,11.97
2018-01-24T07:03:27.928Z,11.97
2018-01-24T07:04:27.796Z,11.96
2018-01-24T07:05:27.735Z,11.98
2018-01-24T07:06:27.647Z,11.98
2018-01-24T07:07:27.601Z,11.98
2018-01-24T07:08:27.491Z,11.98
2018-01-24T07:09:27.425Z,11.98
2018-01-24T07:10:27.331Z,12.05
2018-01-24T07:11:27.263Z,11.93
2018-01-24T07:12:27.202Z,11.97
2018-01-24T07:13:27.118Z,11.87
2018-01-24T07:14:27.026Z,11.88
2018-01-24T07:15:26.949Z,11.90
2018-01-24T07:16:26.893Z,12.04
2018-01-24T07:17:26.787Z,12.03
2018-01-24T07:18:26.730Z,11.94
2018-01-24T07:19:26.644Z,11.94
2018-01-24T07:20:26.553Z,11.90
2018-01-24T07:21:26.511Z,11.88
2018-01-24T07:22:26.439Z,11.90
2018-01-24T07:23:26.344Z,11.93
2018-01-24T07:24:26.228Z,12.01
2018-01-24T07:27:08.125Z,12.01
2018-01-24T07:28:08.070Z,12.08
2018-01-24T07:29:07.953Z,12.11
2018-01-24T07:30:07.887Z,12.05
2018-01-24T07:31:07.841Z,12.04
2018-01-24T07:32:07.773Z,12.05
2018-01-24T07:33:07.663Z,12.00
2018-01-24T07:34:07.579Z,12.18
2018-01-24T07:35:07.508Z,12.05
2018-01-24T07:36:07.436Z,12.11
2018-01-24T07:37:07.329Z,12.01
2018-01-24T07:38:07.276Z,12.15
2018-01-24T07:39:07.174Z,12.15
2018-01-24T07:40:07.109Z,12.15
2018-01-24T07:41:07.684Z,12.13
2018-01-24T07:42:06.958Z,12.16
2018-01-24T07:43:06.875Z,12.11
2018-01-24T07:44:06.796Z,12.08
2018-01-24T07:45:06.693Z,12.05
2018-01-24T07:46:06.639Z,12.03
2018-01-24T07:47:06.552Z,12.15
2018-01-24T07:48:06.499Z,12.07
2018-01-24T07:49:06.403Z,12.07
2018-01-24T07:50:06.336Z,12.08
2018-01-24T07:51:06.236Z,12.08
2018-01-24T07:52:06.168Z,12.15
2018-01-24T07:53:06.097Z,12.08
2018-01-24T07:54:06.014Z,12.16
2018-01-24T07:55:05.911Z,12.15
2018-01-24T07:56:05.852Z,12.21
2018-01-24T07:57:05.776Z,12.08
2018-01-24T07:58:05.719Z,12.15
2018-01-24T07:59:05.633Z,12.15
2018-01-24T08:00:05.550Z,12.07
2018-01-24T08:01:05.449Z,12.12
2018-01-24T08:02:05.372Z,12.18
2018-01-24T08:03:05.298Z,12.21
2018-01-24T08:04:05.231Z,12.19
2018-01-24T08:05:05.182Z,12.21
2018-01-24T08:06:05.066Z,12.23
2018-01-24T08:07:04.989Z,12.26
2018-01-24T08:08:04.920Z,12.26
2018-01-24T08:09:04.853Z,12.33
2018-01-24T08:10:04.802Z,12.25
2018-01-24T08:11:04.702Z,12.26
2018-01-24T08:12:04.618Z,12.26
2018-01-24T08:13:04.516Z,12.31
2018-01-24T08:14:04.436Z,12.26
2018-01-24T08:15:04.375Z,12.31
2018-01-24T08:16:04.279Z,12.31
2018-01-24T08:17:04.192Z,12.29
2018-01-24T08:18:04.143Z,12.30
2018-01-24T08:19:04.060Z,12.31
2018-01-24T08:20:04.008Z,12.40
2018-01-24T08:21:03.900Z,12.43
2018-01-24T08:22:03.860Z,12.40
2018-01-24T08:23:03.727Z,12.46
2018-01-24T08:24:03.655Z,12.38
2018-01-24T08:25:03.630Z,12.49
2018-01-24T08:26:03.498Z,12.49
2018-01-24T08:27:03.409Z,12.43
2018-01-24T08:28:03.366Z,12.51
2018-01-24T08:29:03.266Z,12.46
2018-01-24T08:30:03.197Z,12.51
2018-01-24T08:31:03.123Z,12.52
2018-01-24T08:32:03.031Z,12.43
2018-01-24T08:33:02.939Z,12.54
2018-01-24T08:34:02.873Z,12.44
2018-01-24T08:36:45.163Z,12.44
2018-01-24T08:37:45.700Z,12.46
2018-01-24T08:38:44.970Z,12.51
2018-01-24T08:39:44.891Z,12.54
2018-01-24T08:40:44.833Z,12.55
2018-01-24T08:41:44.744Z,12.59
2018-01-24T08:42:44.685Z,12.51
2018-01-24T08:43:44.585Z,12.58
2018-01-24T08:44:44.521Z,12.58
2018-01-24T08:45:44.421Z,12.62
2018-01-24T08:46:44.482Z,12.59
2018-01-24T08:47:44.268Z,12.63
2018-01-24T08:48:44.222Z,12.66
2018-01-24T08:49:44.162Z,12.62
2018-01-24T08:50:44.046Z,12.70
2018-01-24T08:51:43.981Z,12.66
2018-01-24T08:52:43.893Z,12.55
2018-01-24T08:53:43.791Z,12.61
2018-01-24T08:54:43.722Z,12.58
2018-01-24T08:55:43.686Z,12.61
2018-01-24T08:56:43.605Z,12.62
2018-01-24T08:57:43.480Z,12.59
2018-01-24T08:58:43.429Z,12.62
2018-01-24T08:59:43.326Z,12.62
2018-01-24T09:00:43.280Z,12.63
2018-01-24T09:01:43.179Z,12.63
2018-01-24T09:02:43.126Z,12.69
2018-01-24T09:03:43.020Z,12.69
2018-01-24T09:04:42.959Z,12.59
2018-01-24T09:05:42.859Z,12.55
2018-01-24T09:06:42.785Z,12.73
2018-01-24T09:07:42.717Z,12.73
2018-01-24T09:10:24.647Z,12.70
2018-01-24T09:11:24.567Z,12.67
2018-01-24T09:12:24.538Z,12.85
2018-01-24T09:13:24.940Z,12.89
2018-01-24T09:14:24.407Z,12.87
2018-01-24T09:15:24.257Z,12.85
2018-01-24T09:16:24.219Z,12.89
2018-01-24T09:17:24.101Z,12.92
2018-01-24T09:18:24.032Z,12.89
2018-01-24T09:19:23.941Z,12.98
2018-01-24T09:20:23.863Z,12.99
2018-01-24T09:21:23.785Z,12.84
2018-01-24T09:22:23.718Z,12.95
2018-01-24T09:23:23.772Z,12.96
2018-01-24T09:24:23.546Z,13.03
2018-01-24T09:25:23.476Z,13.07
2018-01-24T09:26:23.379Z,13.10
2018-01-24T09:27:23.314Z,13.10
2018-01-24T09:28:23.265Z,13.13
2018-01-24T09:29:23.167Z,13.12
2018-01-24T09:30:23.075Z,13.24
2018-01-24T09:31:23.007Z,13.21
2018-01-24T09:32:22.987Z,13.03
2018-01-24T09:33:22.882Z,13.17
2018-01-24T09:34:22.784Z,13.22
2018-01-24T09:35:22.715Z,13.16
2018-01-24T09:36:22.600Z,13.13
2018-01-24T09:37:22.538Z,13.16
2018-01-24T09:38:22.454Z,13.13
2018-01-24T09:39:22.400Z,13.16
2018-01-24T09:40:22.294Z,13.21
2018-01-24T09:41:22.228Z,13.25
2018-01-24T09:42:22.152Z,13.22
2018-01-24T09:43:22.068Z,13.25
2018-01-24T09:44:21.986Z,13.21
2018-01-24T09:45:21.942Z,13.21
2018-01-24T09:46:21.846Z,13.21
2018-01-24T09:47:21.807Z,13.24
2018-01-24T09:48:21.670Z,13.22
2018-01-24T09:49:21.611Z,13.28
2018-01-24T09:50:21.541Z,13.36
2018-01-24T09:51:21.460Z,13.29
2018-01-24T09:52:21.360Z,13.28
2018-01-24T09:53:21.300Z,13.44
2018-01-24T09:54:21.204Z,13.44
2018-01-24T09:55:21.219Z,13.53
2018-01-24T09:56:21.051Z,13.46
2018-01-24T09:57:21.006Z,13.41
2018-01-24T09:58:20.914Z,13.39
2018-01-24T09:59:20.825Z,13.39
2018-01-24T10:00:20.773Z,13.35
2018-01-24T10:01:20.677Z,13.51
2018-01-24T10:02:20.587Z,13.38
2018-01-24T10:03:20.515Z,13.43
2018-01-24T10:04:20.450Z,13.39
2018-01-24T10:05:20.385Z,13.36
2018-01-24T10:06:20.274Z,13.36
2018-01-24T10:07:20.237Z,13.27
2018-01-24T10:08:20.113Z,13.31
2018-01-24T10:09:20.051Z,13.35
2018-01-24T10:10:20.007Z,13.25
2018-01-24T10:11:19.897Z,13.44
2018-01-24T10:12:19.839Z,13.47
2018-01-24T10:13:19.915Z,13.39
2018-01-24T10:14:19.655Z,13.41
2018-01-24T10:15:19.608Z,13.44
2018-01-24T10:16:19.519Z,13.46
2018-01-24T10:17:19.443Z,13.44
2018-01-24T10:18:19.366Z,13.47
2018-01-24T10:19:19.274Z,13.43
2018-01-24T10:20:19.200Z,13.41
2018-01-24T10:21:19.145Z,13.51
2018-01-24T10:22:19.130Z,13.41
2018-01-24T10:23:18.966Z,13.47
2018-01-24T10:24:18.872Z,13.43
2018-01-24T10:25:18.813Z,13.51
2018-01-24T10:26:18.742Z,13.51
2018-01-24T10:27:18.661Z,13.51
2018-01-24T10:28:18.582Z,13.59
2018-01-24T10:29:18.501Z,13.59
2018-01-24T10:30:18.416Z,13.66
2018-01-24T10:31:18.341Z,13.72
2018-01-24T10:32:18.249Z,13.76
2018-01-24T10:33:18.220Z,13.72
2018-01-24T10:34:18.106Z,13.84
2018-01-24T10:35:18.038Z,13.84
2018-01-24T10:36:17.953Z,13.93
2018-01-24T10:37:17.902Z,13.94
2018-01-24T10:38:17.847Z,14.04
2018-01-24T10:39:17.725Z,14.01
2018-01-24T10:40:17.642Z,14.06
2018-01-24T10:41:17.574Z,14.27
2018-01-24T10:42:17.478Z,14.61
2018-01-24T10:43:17.429Z,14.66
2018-01-24T10:44:17.320Z,14.80
2018-01-24T10:45:17.256Z,14.86
2018-01-24T10:46:17.174Z,14.97
2018-01-24T10:47:17.103Z,15.22
2018-01-24T10:48:17.043Z,15.58
2018-01-24T10:49:16.953Z,15.53
2018-01-24T10:50:16.858Z,15.53
2018-01-24T10:51:16.801Z,15.56
2018-01-24T10:52:16.706Z,15.66
2018-01-24T10:53:16.653Z,15.68
2018-01-24T10:54:16.555Z,15.56
2018-01-24T10:55:16.480Z,15.19
2018-01-24T10:56:16.399Z,15.13
2018-01-24T10:57:16.337Z,15.22
2018-01-24T10:58:16.282Z,15.35
2018-01-24T10:59:16.177Z,15.52
2018-01-24T11:00:16.090Z,15.38
2018-01-24T11:01:16.048Z,15.40
2018-01-24T11:02:15.937Z,15.30
2018-01-24T11:03:15.893Z,14.94
2018-01-24T11:04:15.785Z,15.11
2018-01-24T11:05:15.782Z,15.38
2018-01-24T11:06:15.638Z,15.56
2018-01-24T11:07:15.565Z,15.66
2018-01-24T11:08:15.475Z,15.51
2018-01-24T11:09:15.409Z,15.48
2018-01-24T11:10:15.368Z,15.44
2018-01-24T11:11:15.291Z,15.68
2018-01-24T11:12:15.169Z,15.76
2018-01-24T11:13:15.109Z,15.88
2018-01-24T11:14:15.031Z,15.78
2018-01-24T11:15:14.966Z,15.91
2018-01-24T11:16:14.906Z,15.80
2018-01-24T11:17:14.804Z,15.77
2018-01-24T11:18:14.707Z,15.76
2018-01-24T11:19:14.652Z,15.78
2018-01-24T11:20:14.644Z,15.52
2018-01-24T11:21:14.513Z,15.51
2018-01-24T11:22:14.412Z,15.44
2018-01-24T11:23:14.354Z,15.34
2018-01-24T11:24:14.258Z,15.43
2018-01-24T11:25:14.214Z,15.40
2018-01-24T11:26:14.096Z,15.25
2018-01-24T11:27:14.026Z,15.04
2018-01-24T11:28:14.010Z,15.15
2018-01-24T11:29:13.880Z,15.20
2018-01-24T11:30:13.793Z,15.43
2018-01-24T11:31:13.750Z,15.41
2018-01-24T11:32:13.654Z,15.40
2018-01-24T11:33:13.600Z,15.46
2018-01-24T11:34:13.487Z,15.49
2018-01-24T11:35:13.411Z,15.35
2018-01-24T11:36:13.333Z,15.67
2018-01-24T11:37:13.395Z,15.78
2018-01-24T11:38:13.175Z,15.73
2018-01-24T11:39:13.115Z,15.86
2018-01-24T11:40:13.021Z,16.01
2018-01-24T11:41:12.965Z,15.91
2018-01-24T11:42:12.897Z,16.04
2018-01-24T11:43:12.803Z,16.41
2018-01-24T11:44:12.719Z,16.18
2018-01-24T11:45:12.650Z,15.95
2018-01-24T11:46:12.583Z,15.84
2018-01-24T11:47:12.524Z,15.81
2018-01-24T11:48:12.418Z,15.84
2018-01-24T11:49:12.353Z,15.78
2018-01-24T11:50:12.260Z,15.58
2018-01-24T11:52:54.211Z,15.60
2018-01-24T11:53:54.098Z,15.67
2018-01-24T11:54:54.019Z,15.70
2018-01-24T11:55:53.958Z,15.62
2018-01-24T11:56:53.870Z,15.68
2018-01-24T11:57:53.877Z,15.70
2018-01-24T11:58:53.708Z,15.60
2018-01-24T11:59:53.658Z,15.37
2018-01-24T12:00:54.243Z,15.41
2018-01-24T12:01:53.504Z,15.41
2018-01-24T12:02:53.435Z,15.43
2018-01-24T12:03:53.342Z,15.35
2018-01-24T12:04:53.278Z,15.44
2018-01-24T12:05:53.206Z,15.60
2018-01-24T12:06:53.104Z,15.58
2018-01-24T12:07:53.061Z,15.70
2018-01-24T12:08:52.951Z,15.71
2018-01-24T12:09:52.888Z,15.77
2018-01-24T12:10:52.810Z,15.78
2018-01-24T12:11:52.736Z,15.71
2018-01-24T12:12:52.655Z,15.68
2018-01-24T12:13:52.655Z,15.67
2018-01-24T12:14:52.493Z,15.59
2018-01-24T12:15:52.434Z,15.59
2018-01-24T12:16:52.337Z,15.70
2018-01-24T12:17:52.279Z,15.55
2018-01-24T12:18:52.208Z,15.59
2018-01-24T12:19:52.115Z,15.44
2018-01-24T12:20:52.041Z,15.41
2018-01-24T12:21:51.985Z,15.38
2018-01-24T12:22:51.877Z,15.37
2018-01-24T12:23:51.831Z,15.34
2018-01-24T12:24:51.726Z,15.25
2018-01-24T12:25:51.655Z,15.30
2018-01-24T12:26:51.570Z,15.34
2018-01-24T12:27:51.498Z,15.33
2018-01-24T12:28:51.459Z,15.25
2018-01-24T12:29:51.350Z,15.09
2018-01-24T12:30:51.302Z,15.15
2018-01-24T12:31:51.201Z,15.09
2018-01-24T12:32:51.109Z,15.11
2018-01-24T12:33:51.063Z,15.01
2018-01-24T12:34:50.997Z,15.05
2018-01-24T12:35:50.892Z,15.04
2018-01-24T12:36:50.802Z,15.09
2018-01-24T12:37:50.744Z,15.13
2018-01-24T12:38:50.652Z,15.07
2018-01-24T12:39:50.618Z,14.95
2018-01-24T12:40:50.493Z,15.12
2018-01-24T12:41:50.422Z,15.16
2018-01-24T12:42:50.335Z,15.13
2018-01-24T12:43:50.293Z,15.09
2018-01-24T12:44:50.210Z,15.13
2018-01-24T12:45:50.124Z,15.19
2018-01-24T12:46:50.038Z,15.22
2018-01-24T12:47:49.969Z,15.23
2018-01-24T12:48:49.890Z,15.12
2018-01-24T12:49:49.813Z,15.16
2018-01-24T12:50:49.784Z,15.20
2018-01-24T12:51:49.707Z,15.23
2018-01-24T12:52:49.579Z,15.25
2018-01-24T12:53:49.506Z,15.34
2018-01-24T12:54:49.419Z,15.25
2018-01-24T12:55:49.368Z,15.23
2018-01-24T12:56:49.264Z,15.34
2018-01-24T12:57:49.210Z,15.34
2018-01-24T12:58:49.115Z,15.27